• Join FlightAware (Why Join?)
  • Login
  • US Flag 
02:40PM EST


 

Airport Tracker/Info


-or-


 

Live Flight TrackerFlight Track Log ✈ JIA2349 ✈ 07-May-2013 ✈ KDAY - KCLT

Flight Track Log - Related Links

Times and Time Zones

All times are in EDT time to prevent confusion due to time zone crossing. See the JIA2349 flight status page for this flight to view local times or setup timezone preferences in your user account.

Time Position Orientation Groundspeed Altitude Reporting Facility
EDT Latitude Longitude Course Direction KTS MPH feet Rate Location/Type
08:00PM 39.9047 -84.1933 87° East 175 201 1,900  Level Indianapolis Center
08:01PM 39.9067 -84.1433 87° East 190 219 3,700 2,340 Climbing Indianapolis Center
08:02PM 39.8556 -84.1650 198° South 236 272 6,400 2,820 Climbing Indianapolis Center
08:03PM 39.8056 -84.2225 221° Southwest 251 289 9,500 2,460 Climbing Indianapolis Center
08:04PM 39.7356 -84.1839 157° South 273 314 11,600 2,280 Climbing Indianapolis Center
08:05PM 39.6594 -84.1336 153° Southeast 299 344 14,200 2,700 Climbing Indianapolis Center
08:06PM 39.5672 -84.0742 154° Southeast 314 361 17,200 2,400 Climbing Indianapolis Center
08:07PM 39.4825 -84.0189 153° Southeast 330 380 19,200 1,860 Climbing Indianapolis Center
08:08PM 39.3933 -83.9611 153° Southeast 351 404 21,100 1,920 Climbing Indianapolis Center
08:09PM 39.3000 -83.9003 153° Southeast 369 425 23,200 1,860 Climbing Indianapolis Center
08:10PM 39.2050 -83.8392 154° Southeast 378 435 25,000 1,620 Climbing Indianapolis Center
08:11PM 39.1075 -83.7778 154° Southeast 386 444 26,600 1,500 Climbing Indianapolis Center
08:12PM 39.0069 -83.7142 154° Southeast 396 456 28,100 1,440 Climbing Indianapolis Center
08:13PM 38.9050 -83.6492 154° Southeast 404 465 29,600 1,380 Climbing Indianapolis Center
08:14PM 38.8031 -83.5831 153° Southeast 407 468 31,000 1,140 Climbing Indianapolis Center
08:15PM 38.6797 -83.5053 154° Southeast 418 481 32,000 480 Climbing Indianapolis Center
08:16PM 38.5819 -83.4425 153° Southeast 429 494 32,000  Level Indianapolis Center
08:17PM 38.4539 -83.3617 154° Southeast 437 503 32,100 480 Climbing Indianapolis Center
08:19PM 38.3453 -83.2931 154° Southeast 434 499 33,000 420 Climbing Indianapolis Center
08:20PM 38.2383 -83.2264 154° Southeast 428 493 33,000  Level Indianapolis Center
08:21PM 38.1322 -83.1597 154° Southeast 425 489 33,000  Level Indianapolis Center
08:22PM 38.0261 -83.0936 154° Southeast 423 487 33,000  Level Indianapolis Center
08:23PM 37.9217 -83.0289 154° Southeast 418 481 33,000  Level Indianapolis Center
08:24PM 37.8150 -82.9608 153° Southeast 426 490 33,000  Level Indianapolis Center
08:25PM 37.6908 -82.8856 154° Southeast 426 490 33,000 -540 Level Indianapolis Center
08:26PM 37.5886 -82.8242 155° Southeast 401 461 32,000 -1,020 Descending Indianapolis Center
08:27PM 37.4897 -82.7644 154° Southeast 393 452 31,000 -1,020 Descending Indianapolis Center
08:28PM 37.3914 -82.7042 154° Southeast 391 450 30,000 -1,020 Descending Indianapolis Center
08:29PM 37.2950 -82.6453 154° Southeast 385 443 29,000 -540 Descending Indianapolis Center
08:30PM 37.1947 -82.5833 154° Southeast 394 453 29,000 -180 Level Indianapolis Center
08:31PM 37.0872 -82.5186 154° Southeast 416 479 28,700 -900 Descending Indianapolis Center
08:32PM 36.9819 -82.4553 154° Southeast 418 481 27,200 -1,620 Descending Indianapolis Center
08:33PM 36.8611 -82.3828 154° Southeast 410 472 25,400 -1,740 Descending Indianapolis Center
08:33PM 36.8267 -82.3608 153° Southeast 412 474 24,900 -1,080 Descending Atlanta Center
08:34PM 36.7236 -82.3008 155° Southeast 406 467 24,000 -480 Descending Atlanta Center
08:35PM 36.6208 -82.2411 155° Southeast 406 467 24,000  Level Atlanta Center
08:36PM 36.5322 -82.1889 155° Southeast 401 461 24,000  Level Atlanta Center
08:37PM 36.4314 -82.1267 154° Southeast 401 461 24,000  Level Atlanta Center
08:38PM 36.3322 -82.0619 152° Southeast 401 461 24,000  Level Atlanta Center
08:39PM 36.2372 -81.9975 151° Southeast 401 461 24,000 -780 Level Atlanta Center
08:40PM 36.1339 -81.9306 152° Southeast 403 464 22,500 -1,920 Descending Atlanta Center
08:41PM 36.0306 -81.8614 152° Southeast 420 483 20,200 -2,280 Descending Atlanta Center
08:42PM 35.9314 -81.7975 152° Southeast 406 467 18,000 -2,220 Descending Atlanta Center
08:43PM 35.8364 -81.7358 152° Southeast 398 458 15,800 -2,280 Descending Atlanta Center
08:44PM 35.7414 -81.6772 153° Southeast 376 433 13,600 -2,340 Descending Atlanta Center
08:45PM 35.6483 -81.6161 152° Southeast 368 423 11,300 -1,380 Descending Atlanta Center
08:46PM 35.5844 -81.5517 141° Southeast 320 368 11,000 -300 Descending Atlanta Center
08:47PM 35.5286 -81.4664 129° Southeast 306 352 10,800 -660 Descending Atlanta Center
08:48PM 35.5036 -81.3678 107° East 307 353 9,700 -1,020 Descending Atlanta Center
08:49PM 35.5117 -81.2628 85° East 288 331 8,700 -1,320 Descending Atlanta Center
08:50PM 35.5136 -81.1633 89° East 293 337 7,000 -1,680 Descending Atlanta Center
08:51PM 35.4986 -81.0669 101° East 286 329 5,400 -1,020 Descending Atlanta Center
08:52PM 35.4572 -80.9944 125° Southeast 254 292 5,000 -480 Descending Atlanta Center
08:53PM 35.4025 -80.9786 167° South 212 244 4,500 -960 Descending Atlanta Center
08:54PM 35.3442 -80.9808 182° South 197 227 3,100 -1,140 Descending Atlanta Center
08:55PM 35.2961 -80.9775 177° South 173 199 2,200 -840 Descending Atlanta Center
08:56PM 35.2544 -80.9739 176° South 138 159 1,400 -840 Descending Atlanta Center
08:58PM 35.2137 -80.9491 39° Northeast  Level Estimated
09:05PM 35.2137 -80.9491 39° Northeast  Level Estimated